Time;durP1;ratioP1;P1;durP2;ratioP2;P2;SDS_P1;SDS_P2;PMS_P1;PMS_P2;Temp;Humidity;BMP_temperature;BMP_pressure;BME280_temperature;BME280_humidity;BME280_pressure;Samples;Min_cycle;Max_cycle;Signal;HPM_P1;HPM_P2
2023/03/29 00:00:21;;;;;;;6.33;4.20;;;;;;;1.24;70.17;95541.22;5010707;28;20823;-72
2023/03/29 00:02:47;;;;;;;6.67;4.00;;;;;;;1.38;70.23;95534.91;5021280;28;20229;-73
2023/03/29 00:05:16;;;;;;;8.33;4.30;;;;;;;1.32;70.13;95533.66;5001608;28;20706;-73
2023/03/29 00:07:41;;;;;;;8.23;4.20;;;;;;;1.33;69.40;95530.97;5018099;28;20597;-73
2023/03/29 00:10:08;;;;;;;5.53;4.03;;;;;;;1.09;70.13;95530.41;5010314;28;20292;-73
2023/03/29 00:12:35;;;;;;;9.13;4.37;;;;;;;1.23;70.24;95526.69;5002483;28;20233;-74
2023/03/29 00:15:01;;;;;;;9.77;4.10;;;;;;;1.26;69.76;95527.25;5008375;28;20238;-73
2023/03/29 00:17:27;;;;;;;7.63;4.47;;;;;;;1.18;69.34;95526.25;5018961;28;20226;-72
2023/03/29 00:19:52;;;;;;;11.97;4.40;;;;;;;1.17;69.81;95527.22;5019909;28;20237;-71
2023/03/29 00:22:18;;;;;;;7.73;3.93;;;;;;;1.19;69.48;95523.56;5034086;28;20233;-73
2023/03/29 00:24:46;;;;;;;9.93;4.57;;;;;;;1.32;69.52;95529.31;5020270;28;20272;-73
2023/03/29 00:27:12;;;;;;;9.23;4.20;;;;;;;1.18;69.16;95523.69;5032197;28;20663;-73
2023/03/29 00:29:37;;;;;;;7.57;4.70;;;;;;;1.24;68.73;95523.97;5016052;28;20716;-73
2023/03/29 00:32:03;;;;;;;6.47;4.30;;;;;;;1.06;68.99;95524.69;5008834;28;20253;-73
2023/03/29 00:34:29;;;;;;;6.27;4.40;;;;;;;1.08;69.46;95515.06;5016910;28;20230;-73
2023/03/29 00:36:56;;;;;;;9.93;4.43;;;;;;;1.15;68.87;95518.75;5010340;28;20225;-72
2023/03/29 00:39:22;;;;;;;7.40;4.53;;;;;;;1.23;68.16;95521.53;5007952;28;20339;-73
2023/03/29 00:41:48;;;;;;;7.20;4.37;;;;;;;1.31;68.04;95529.47;5015078;28;20711;-73
2023/03/29 00:44:50;;;;;;;7.23;4.23;;;;;;;1.28;67.75;95525.38;5016845;28;20304;-74
2023/03/29 00:47:20;;;;;;;8.20;4.40;;;;;;;1.24;67.41;95529.13;5031035;28;20246;-73
2023/03/29 00:49:45;;;;;;;8.83;4.87;;;;;;;1.21;67.55;95526.81;5018920;28;20257;-73
2023/03/29 00:52:12;;;;;;;10.17;4.70;;;;;;;1.17;67.64;95522.06;5008513;28;20523;-72
2023/03/29 00:54:37;;;;;;;8.47;4.27;;;;;;;1.08;67.10;95528.78;5014606;28;20237;-71
2023/03/29 00:57:03;;;;;;;6.10;4.03;;;;;;;1.10;67.39;95516.56;5009489;28;20234;-71
2023/03/29 00:59:28;;;;;;;8.30;4.40;;;;;;;1.01;67.26;95522.50;5037212;28;20820;-72
2023/03/29 01:02:01;;;;;;;7.80;4.30;;;;;;;1.10;66.77;95520.94;5003469;28;20230;-71
2023/03/29 01:04:35;;;;;;;7.07;4.30;;;;;;;1.04;67.34;95527.41;5014513;28;20230;-72
2023/03/29 01:07:22;;;;;;;7.87;4.20;;;;;;;1.18;67.13;95539.13;5028967;28;20238;-70
2023/03/29 01:10:10;;;;;;;7.93;4.27;;;;;;;1.11;66.79;95536.25;5036863;28;20627;-72
2023/03/29 01:12:40;;;;;;;5.77;4.20;;;;;;;1.08;67.58;95546.81;5028786;28;20237;-71
2023/03/29 01:15:09;;;;;;;7.47;4.40;;;;;;;1.01;67.74;95543.13;5015522;28;20225;-73
2023/03/29 01:17:35;;;;;;;7.87;4.13;;;;;;;1.08;67.83;95540.84;5031603;28;20229;-71
2023/03/29 01:20:09;;;;;;;7.43;4.33;;;;;;;1.15;67.43;95545.38;5009370;28;20225;-70
2023/03/29 01:23:00;;;;;;;6.93;4.13;;;;;;;1.10;67.41;95546.72;5019178;28;20228;-71
2023/03/29 01:25:38;;;;;;;8.03;4.50;;;;;;;1.14;67.13;95551.47;5029626;28;20225;-71
2023/03/29 01:28:11;;;;;;;9.30;4.70;;;;;;;1.11;67.21;95546.56;5029785;28;20239;-71
2023/03/29 01:31:11;;;;;;;7.97;4.40;;;;;;;1.16;67.52;95547.00;4998923;28;20227;-71
2023/03/29 01:33:39;;;;;;;5.70;4.13;;;;;;;1.17;66.73;95548.63;5026875;28;20230;-71
2023/03/29 01:36:25;;;;;;;6.80;4.20;;;;;;;0.98;66.84;95551.09;5005660;28;20230;-71
2023/03/29 01:38:59;;;;;;;7.03;4.40;;;;;;;1.05;66.49;95544.47;5016714;28;20238;-71
2023/03/29 01:41:51;;;;;;;7.73;4.20;;;;;;;1.11;66.38;95549.16;5025221;28;20954;-72
2023/03/29 01:44:18;;;;;;;6.27;3.60;;;;;;;1.06;65.77;95546.13;5037018;28;20241;-72
2023/03/29 01:46:51;;;;;;;10.87;4.37;;;;;;;1.11;65.82;95543.16;5007813;28;20245;-71
2023/03/29 01:49:31;;;;;;;7.27;4.03;;;;;;;1.08;65.28;95540.84;5024776;28;20229;-72
2023/03/29 01:52:17;;;;;;;9.90;3.90;;;;;;;1.04;65.66;95532.56;5017879;28;20230;-72
2023/03/29 01:54:52;;;;;;;6.73;4.00;;;;;;;1.07;65.69;95532.31;5010918;28;20733;-71
2023/03/29 01:57:18;;;;;;;7.17;4.10;;;;;;;1.05;65.68;95533.38;4999233;28;20244;-72
2023/03/29 01:59:44;;;;;;;7.43;4.20;;;;;;;1.13;65.49;95533.53;5033203;28;20226;-72
2023/03/29 02:02:10;;;;;;;8.73;4.10;;;;;;;1.08;65.36;95528.78;4993438;28;20790;-72
2023/03/29 02:04:46;;;;;;;8.50;4.27;;;;;;;0.97;65.51;95539.16;5014241;28;20222;-71
2023/03/29 02:07:12;;;;;;;5.37;4.10;;;;;;;1.11;64.99;95540.59;4999418;28;20272;-72
2023/03/29 02:09:37;;;;;;;7.10;4.30;;;;;;;1.15;65.24;95534.22;5019037;28;20299;-72
2023/03/29 02:12:03;;;;;;;7.03;3.80;;;;;;;1.06;65.54;95543.56;5015501;28;20234;-72
2023/03/29 02:14:29;;;;;;;5.40;3.93;;;;;;;1.04;65.83;95548.03;5012592;28;20221;-72
2023/03/29 02:16:54;;;;;;;7.63;4.00;;;;;;;1.09;65.12;95543.31;5017160;28;20229;-72
2023/03/29 02:19:20;;;;;;;8.20;4.00;;;;;;;0.93;65.62;95542.91;5033161;28;20221;-72
2023/03/29 02:22:00;;;;;;;6.23;4.00;;;;;;;1.07;65.09;95546.94;5011515;28;20887;-72
2023/03/29 02:24:26;;;;;;;7.57;4.10;;;;;;;1.02;65.12;95547.34;5028556;28;20318;-72
2023/03/29 02:26:51;;;;;;;6.50;3.97;;;;;;;1.01;65.08;95553.41;5012568;28;20233;-72
2023/03/29 02:29:17;;;;;;;6.37;4.20;;;;;;;0.94;65.35;95552.28;5029185;28;20225;-72
2023/03/29 02:31:52;;;;;;;9.73;4.53;;;;;;;0.98;65.49;95553.66;5000498;28;20673;-72
2023/03/29 02:34:28;;;;;;;8.80;4.30;;;;;;;0.92;65.26;95553.34;5015417;28;20256;-72
2023/03/29 02:36:59;;;;;;;8.77;4.10;;;;;;;0.91;65.25;95557.69;5007093;28;20241;-71
2023/03/29 02:39:28;;;;;;;6.43;4.00;;;;;;;0.95;64.97;95555.69;4996771;28;20309;-72
2023/03/29 02:41:53;;;;;;;8.93;4.20;;;;;;;0.81;65.52;95564.56;5004948;28;20255;-72
2023/03/29 02:44:24;;;;;;;9.37;4.23;;;;;;;0.89;64.97;95564.72;5003096;28;20230;-72
2023/03/29 02:46:52;;;;;;;9.80;4.40;;;;;;;0.96;64.90;95565.88;5008724;28;20234;-72
2023/03/29 02:49:17;;;;;;;8.23;4.33;;;;;;;0.97;65.10;95572.66;4998727;28;20230;-72
2023/03/29 02:51:43;;;;;;;8.30;4.33;;;;;;;0.95;65.52;95581.47;5008423;28;20225;-72
2023/03/29 02:54:17;;;;;;;8.80;4.47;;;;;;;1.02;64.83;95575.69;5000283;28;20766;-71
2023/03/29 02:56:48;;;;;;;8.00;4.40;;;;;;;0.91;64.72;95583.44;5012906;28;20225;-71
2023/03/29 02:59:13;;;;;;;7.67;4.40;;;;;;;0.87;64.97;95574.34;5021911;28;20715;-72
2023/03/29 03:01:41;;;;;;;6.03;4.20;;;;;;;0.93;64.79;95585.91;5007246;28;20256;-71
2023/03/29 03:04:08;;;;;;;6.60;4.60;;;;;;;0.87;65.45;95587.22;5034641;28;20225;-70
2023/03/29 03:06:35;;;;;;;5.87;4.03;;;;;;;0.85;65.61;95583.97;5018404;28;20734;-71
2023/03/29 03:09:01;;;;;;;6.50;4.20;;;;;;;0.90;65.09;95586.16;5038923;28;20250;-71
2023/03/29 03:11:26;;;;;;;8.23;4.47;;;;;;;0.86;65.51;95595.88;5019732;28;20236;-71
2023/03/29 03:13:52;;;;;;;7.33;4.43;;;;;;;0.94;65.61;95595.28;5010947;28;20376;-72
2023/03/29 03:16:17;;;;;;;6.03;4.00;;;;;;;0.88;65.96;95593.19;5037648;28;20233;-72
2023/03/29 03:18:44;;;;;;;6.30;4.07;;;;;;;0.88;66.52;95599.19;5023590;28;20284;-72
2023/03/29 03:21:12;;;;;;;6.13;4.27;;;;;;;0.75;67.23;95595.94;5023366;28;20237;-72
2023/03/29 03:23:40;;;;;;;5.37;3.80;;;;;;;0.77;67.17;95600.97;4997899;28;20257;-72
2023/03/29 03:26:07;;;;;;;5.50;4.00;;;;;;;0.87;67.23;95597.53;5016287;28;20233;-71
2023/03/29 03:28:41;;;;;;;7.03;4.00;;;;;;;0.81;66.87;95600.63;5024532;28;20321;-72
2023/03/29 03:31:07;;;;;;;4.97;4.03;;;;;;;0.79;67.08;95609.41;5023570;28;20234;-71
2023/03/29 03:33:35;;;;;;;6.77;4.10;;;;;;;0.78;66.39;95602.59;5002259;28;20789;-72
2023/03/29 03:36:05;;;;;;;7.63;4.40;;;;;;;0.81;66.18;95613.50;5018670;28;20238;-73
2023/03/29 03:38:34;;;;;;;6.40;3.97;;;;;;;0.89;65.78;95610.28;5002480;28;21144;-72
2023/03/29 03:41:03;;;;;;;8.13;4.03;;;;;;;0.80;65.62;95616.19;5008905;28;20743;-73
2023/03/29 03:43:28;;;;;;;7.00;3.77;;;;;;;0.83;65.13;95614.19;5005603;28;20333;-73
2023/03/29 03:45:55;;;;;;;8.60;3.90;;;;;;;0.78;65.66;95611.16;4991594;28;20904;-72
2023/03/29 03:48:21;;;;;;;8.67;4.20;;;;;;;0.69;65.33;95617.84;5014981;28;20232;-72
2023/03/29 03:50:51;;;;;;;6.30;3.83;;;;;;;0.74;65.56;95622.63;5021240;28;20793;-71
2023/03/29 03:53:17;;;;;;;5.80;4.07;;;;;;;0.79;64.60;95622.28;4992785;28;20321;-72
2023/03/29 03:55:54;;;;;;;8.63;3.97;;;;;;;0.71;64.13;95632.38;5030373;28;20316;-73
2023/03/29 03:58:20;;;;;;;5.73;3.80;;;;;;;0.74;63.88;95630.34;4987711;28;20226;-71
2023/03/29 04:00:54;;;;;;;10.07;3.97;;;;;;;0.69;63.91;95635.09;5006641;28;20269;-72
2023/03/29 04:03:21;;;;;;;7.27;3.93;;;;;;;0.72;63.93;95639.19;4975320;28;20246;-71
2023/03/29 04:05:53;;;;;;;6.97;3.80;;;;;;;0.81;63.49;95634.09;5007299;28;20392;-73
2023/03/29 04:08:21;;;;;;;7.63;3.60;;;;;;;0.75;62.74;95629.44;5034300;28;20264;-72
2023/03/29 04:10:54;;;;;;;7.30;3.70;;;;;;;0.80;62.85;95632.47;5012173;28;20256;-73
2023/03/29 04:13:22;;;;;;;7.57;3.60;;;;;;;0.79;62.78;95642.91;4988826;28;20835;-73
2023/03/29 04:15:59;;;;;;;4.90;3.40;;;;;;;0.80;62.58;95632.47;5011981;28;20927;-72
2023/03/29 04:18:31;;;;;;;6.37;3.40;;;;;;;0.77;62.83;95642.19;5004126;28;20244;-74
2023/03/29 04:20:57;;;;;;;5.27;3.70;;;;;;;0.81;62.54;95641.00;5019836;28;20781;-73
2023/03/29 04:23:33;;;;;;;5.43;3.83;;;;;;;0.90;62.41;95648.00;4991880;28;20229;-72
2023/03/29 04:25:59;;;;;;;9.57;3.93;;;;;;;0.80;62.15;95642.75;4999012;28;20230;-71
2023/03/29 04:28:25;;;;;;;5.97;3.60;;;;;;;0.79;62.24;95651.41;4985504;28;20236;-74
2023/03/29 04:30:51;;;;;;;6.23;3.70;;;;;;;0.83;62.21;95646.84;5006378;28;20241;-72
2023/03/29 04:33:19;;;;;;;7.67;3.80;;;;;;;0.75;62.44;95646.63;4999772;28;20237;-72
2023/03/29 04:35:48;;;;;;;6.30;3.70;;;;;;;0.73;62.08;95656.25;5006623;28;20234;-71
2023/03/29 04:38:21;;;;;;;9.03;3.97;;;;;;;0.72;62.41;95654.63;5011802;28;20273;-72
2023/03/29 04:40:48;;;;;;;6.33;3.70;;;;;;;0.68;62.72;95659.19;5033670;28;20244;-72
2023/03/29 04:43:16;;;;;;;6.60;3.70;;;;;;;0.70;62.58;95657.31;5012255;28;20245;-72
2023/03/29 04:45:48;;;;;;;6.33;3.87;;;;;;;0.86;62.43;95665.44;5013083;28;21027;-71
2023/03/29 04:48:19;;;;;;;7.00;3.70;;;;;;;0.91;62.38;95671.06;5003186;28;20273;-72
2023/03/29 04:50:50;;;;;;;7.77;4.13;;;;;;;0.88;62.58;95676.47;4989447;28;20459;-72
2023/03/29 04:53:16;;;;;;;7.60;3.77;;;;;;;0.93;62.29;95671.75;5030264;28;20241;-72
2023/03/29 04:55:42;;;;;;;8.77;4.20;;;;;;;1.01;62.60;95669.38;5022586;28;20288;-72
2023/03/29 04:58:08;;;;;;;9.00;4.33;;;;;;;1.01;61.67;95673.72;5031179;28;20256;-72
2023/03/29 05:00:34;;;;;;;6.50;4.00;;;;;;;1.04;61.07;95670.91;5024944;28;20237;-72
2023/03/29 05:03:03;;;;;;;6.10;3.60;;;;;;;0.91;61.18;95673.63;5015016;28;20227;-73
2023/03/29 05:05:29;;;;;;;8.20;3.90;;;;;;;1.08;61.11;95683.41;5004152;28;20716;-72
2023/03/29 05:07:59;;;;;;;8.10;3.60;;;;;;;1.05;60.92;95690.59;4994739;28;20249;-73
2023/03/29 05:10:25;;;;;;;8.47;3.80;;;;;;;1.12;60.72;95702.03;5026956;28;20230;-71
2023/03/29 05:12:52;;;;;;;9.37;4.30;;;;;;;1.11;59.89;95687.50;5012874;28;20231;-70
2023/03/29 05:15:21;;;;;;;9.33;4.00;;;;;;;1.27;59.33;95693.88;5015445;28;20315;-70
2023/03/29 05:17:47;;;;;;;6.10;3.80;;;;;;;2.17;56.87;95696.72;5001075;28;20293;-72
2023/03/29 05:20:16;;;;;;;8.20;3.83;;;;;;;2.99;53.73;95704.16;5003549;28;20234;-72
2023/03/29 05:22:48;;;;;;;4.40;3.50;;;;;;;3.35;52.24;95707.88;4985273;28;20241;-72
2023/03/29 05:25:19;;;;;;;5.67;3.50;;;;;;;3.48;52.18;95716.19;4991775;28;20987;-72
2023/03/29 05:30:41;;;;;;;6.57;3.80;;;;;;;3.23;52.15;95716.72;4993701;28;20304;-72
2023/03/29 05:33:07;;;;;;;6.73;3.50;;;;;;;3.02;52.71;95713.44;4988914;28;20695;-71
2023/03/29 05:35:34;;;;;;;6.73;3.70;;;;;;;2.72;53.46;95717.72;5001248;28;20735;-72
2023/03/29 05:38:12;;;;;;;5.47;3.40;;;;;;;2.43;54.49;95714.25;4993195;28;20299;-72
2023/03/29 05:40:50;;;;;;;6.80;3.50;;;;;;;2.03;55.38;95721.09;5009629;28;20765;-73
2023/03/29 05:43:17;;;;;;;6.03;3.47;;;;;;;2.03;55.59;95729.69;5022407;28;20322;-70
2023/03/29 05:45:54;;;;;;;9.47;4.20;;;;;;;2.11;55.52;95730.81;4999705;28;20230;-71
2023/03/29 05:48:21;;;;;;;6.93;3.90;;;;;;;2.50;54.64;95732.63;5011894;28;20257;-71
2023/03/29 05:50:53;;;;;;;8.10;3.80;;;;;;;2.56;55.11;95735.50;5008323;28;20713;-71
2023/03/29 05:53:20;;;;;;;7.37;3.87;;;;;;;2.92;53.90;95746.19;5001926;28;20490;-71
2023/03/29 05:55:48;;;;;;;7.67;3.40;;;;;;;2.68;54.32;95746.53;5024607;28;20222;-70
2023/03/29 05:58:16;;;;;;;5.07;3.27;;;;;;;2.59;53.78;95743.00;5016174;28;20236;-71
2023/03/29 06:00:42;;;;;;;7.60;3.20;;;;;;;3.04;53.45;95742.53;5002920;28;20257;-71
2023/03/29 06:03:13;;;;;;;6.60;3.60;;;;;;;2.57;54.17;95744.88;5019085;28;20227;-71
2023/03/29 06:05:39;;;;;;;7.17;3.50;;;;;;;2.29;54.44;95743.00;4987876;28;20320;-72
2023/03/29 06:08:05;;;;;;;6.03;3.10;;;;;;;2.28;54.29;95743.94;5009398;28;20257;-70
2023/03/29 06:10:31;;;;;;;5.97;3.27;;;;;;;2.46;54.32;95755.28;5005282;28;20757;-70
2023/03/29 06:12:57;;;;;;;5.23;3.20;;;;;;;2.23;54.41;95755.59;5006059;28;20791;-71
2023/03/29 06:15:23;;;;;;;5.63;3.20;;;;;;;2.27;54.54;95768.13;5013254;28;20241;-72
2023/03/29 06:17:49;;;;;;;7.20;3.27;;;;;;;2.15;54.13;95770.94;5013664;28;20316;-71
2023/03/29 06:20:15;;;;;;;5.87;3.27;;;;;;;2.23;54.39;95761.59;5010554;28;20241;-72
2023/03/29 06:22:41;;;;;;;6.53;4.00;;;;;;;2.51;53.76;95767.81;5022625;28;20232;-71
2023/03/29 06:25:08;;;;;;;6.77;3.40;;;;;;;2.67;53.19;95774.13;5023251;28;20229;-71
2023/03/29 06:27:34;;;;;;;5.90;3.17;;;;;;;2.50;53.17;95764.44;5001344;28;20241;-71
2023/03/29 06:29:59;;;;;;;7.47;3.10;;;;;;;2.46;53.44;95773.38;5016376;28;20236;-71
2023/03/29 06:32:25;;;;;;;7.50;3.40;;;;;;;2.94;52.18;95777.94;5013922;28;20350;-71
2023/03/29 06:34:51;;;;;;;5.20;2.80;;;;;;;2.81;52.58;95782.50;5013204;28;20264;-71
2023/03/29 06:37:16;;;;;;;6.07;3.00;;;;;;;2.60;52.13;95788.53;5015630;28;20921;-70
2023/03/29 06:39:42;;;;;;;5.43;2.90;;;;;;;2.62;52.33;95778.91;5011871;28;20252;-71
2023/03/29 06:42:08;;;;;;;6.73;3.10;;;;;;;2.59;53.03;95771.41;5030536;28;20292;-70
2023/03/29 06:44:34;;;;;;;4.00;2.73;;;;;;;2.55;52.57;95785.53;4997856;28;20218;-70
2023/03/29 06:47:00;;;;;;;6.03;3.07;;;;;;;2.65;52.30;95790.75;5023357;28;20323;-71
2023/03/29 06:49:25;;;;;;;5.90;3.03;;;;;;;2.69;51.79;95787.78;5001212;28;20226;-69
2023/03/29 06:51:51;;;;;;;6.23;3.27;;;;;;;2.47;52.35;95800.03;5013179;28;20233;-70
2023/03/29 06:54:17;;;;;;;6.17;3.40;;;;;;;2.91;52.14;95793.69;5014596;28;20252;-72
2023/03/29 06:56:45;;;;;;;5.17;3.10;;;;;;;2.82;51.59;95791.91;4999004;28;20309;-71
2023/03/29 06:59:10;;;;;;;6.67;3.10;;;;;;;3.12;51.14;95782.31;5011399;28;20242;-71
2023/03/29 07:01:36;;;;;;;7.17;2.90;;;;;;;3.50;49.74;95781.56;5007149;28;20271;-71
2023/03/29 07:04:06;;;;;;;8.53;2.77;;;;;;;3.58;49.25;95788.66;5002067;28;20238;-70
2023/03/29 07:06:32;;;;;;;6.80;3.23;;;;;;;4.27;48.69;95787.50;5028060;28;20620;-70
2023/03/29 07:09:00;;;;;;;8.63;3.07;;;;;;;4.31;46.92;95791.44;4998944;28;20762;-72
2023/03/29 07:11:25;;;;;;;5.43;2.60;;;;;;;3.83;48.55;95783.72;5036849;28;20269;-72
2023/03/29 07:13:51;;;;;;;5.27;2.73;;;;;;;4.04;47.80;95791.34;5001244;28;20708;-70
2023/03/29 07:16:18;;;;;;;3.23;2.60;;;;;;;4.15;47.58;95792.97;5010786;28;20234;-71
2023/03/29 07:18:43;;;;;;;6.50;2.70;;;;;;;3.85;47.89;95788.75;5011680;28;20702;-72
2023/03/29 07:21:10;;;;;;;6.27;2.73;;;;;;;4.42;47.38;95793.06;5013522;28;20226;-71
2023/03/29 07:23:36;;;;;;;5.30;2.50;;;;;;;4.16;48.10;95799.78;5013998;28;20221;-72
2023/03/29 07:26:02;;;;;;;4.67;2.50;;;;;;;4.35;47.11;95790.19;5016483;28;20631;-71
2023/03/29 07:28:28;;;;;;;8.40;2.70;;;;;;;4.58;46.12;95786.34;5015523;28;20230;-70
2023/03/29 07:31:01;;;;;;;6.00;2.57;;;;;;;4.84;45.36;95783.91;5017622;28;20738;-70
2023/03/29 07:33:26;;;;;;;3.63;2.40;;;;;;;5.14;45.47;95786.19;5014876;28;20402;-71
2023/03/29 07:35:52;;;;;;;7.73;2.70;;;;;;;5.02;45.67;95789.13;5011938;28;20606;-70
2023/03/29 07:38:17;;;;;;;3.40;2.40;;;;;;;5.27;44.45;95791.88;5001766;28;20728;-70
2023/03/29 07:40:43;;;;;;;4.10;2.40;;;;;;;5.01;44.54;95790.94;5017089;28;20310;-68
2023/03/29 07:43:09;;;;;;;4.77;2.30;;;;;;;5.25;43.76;95788.59;5032889;28;20244;-70
2023/03/29 07:45:35;;;;;;;5.80;2.60;;;;;;;4.71;44.89;95791.19;5036540;28;20233;-71
2023/03/29 07:48:01;;;;;;;7.00;2.60;;;;;;;4.77;44.24;95769.88;5017858;28;20249;-71
2023/03/29 07:50:26;;;;;;;4.43;2.40;;;;;;;5.00;43.59;95768.53;5017441;28;20598;-71
2023/03/29 07:52:52;;;;;;;5.70;2.50;;;;;;;4.98;44.41;95775.66;5009779;28;20240;-72
2023/03/29 07:55:18;;;;;;;7.30;2.40;;;;;;;4.92;44.85;95765.81;5026633;28;20740;-71
2023/03/29 07:57:43;;;;;;;5.13;2.33;;;;;;;5.12;42.89;95753.56;5034797;28;20236;-71
2023/03/29 08:00:13;;;;;;;4.73;2.40;;;;;;;4.94;42.07;95761.34;5034608;28;20238;-71
2023/03/29 08:02:39;;;;;;;6.83;2.40;;;;;;;4.99;42.74;95753.91;5049287;28;20221;-71
2023/03/29 08:05:05;;;;;;;5.87;2.30;;;;;;;5.36;41.44;95752.06;5033187;28;20300;-71
2023/03/29 08:07:31;;;;;;;9.60;2.70;;;;;;;5.37;41.41;95758.88;5040409;28;20245;-71
2023/03/29 08:09:56;;;;;;;5.93;2.20;;;;;;;5.05;41.88;95760.31;5009309;28;20238;-71
2023/03/29 08:12:21;;;;;;;3.63;2.07;;;;;;;4.75;42.99;95754.44;5007732;28;20326;-72
2023/03/29 08:14:47;;;;;;;2.83;2.10;;;;;;;4.74;41.48;95759.78;5018623;28;20232;-70
2023/03/29 08:17:12;;;;;;;5.33;2.30;;;;;;;4.88;40.48;95750.69;5004022;28;20237;-73
2023/03/29 08:19:38;;;;;;;3.73;1.90;;;;;;;5.01;41.08;95746.81;5022621;28;20651;-71
2023/03/29 08:22:04;;;;;;;6.60;2.17;;;;;;;4.74;41.25;95741.63;5013982;28;20218;-71
2023/03/29 08:24:30;;;;;;;5.03;2.27;;;;;;;5.03;41.79;95737.13;5015784;28;20896;-71
2023/03/29 08:26:55;;;;;;;4.30;2.13;;;;;;;4.80;42.69;95741.03;5021976;28;20288;-71
2023/03/29 08:29:21;;;;;;;3.33;2.00;;;;;;;5.14;42.00;95739.50;5030481;28;20234;-72
2023/03/29 08:31:46;;;;;;;8.53;2.70;;;;;;;5.33;42.18;95752.34;5019188;28;20237;-72
2023/03/29 08:34:12;;;;;;;4.40;2.40;;;;;;;4.99;40.83;95750.53;5037963;28;20237;-72
2023/03/29 08:36:39;;;;;;;3.27;1.90;;;;;;;4.75;41.08;95751.06;5007498;28;20233;-71
2023/03/29 08:39:04;;;;;;;3.13;2.10;;;;;;;4.59;40.45;95736.09;5004122;28;20233;-72
2023/03/29 08:41:30;;;;;;;5.97;1.93;;;;;;;4.71;39.57;95749.69;5031822;28;23315;-71
2023/03/29 08:44:36;;;;;;;5.27;2.30;;;;;;;4.74;39.82;95747.66;5030496;28;20629;-71
2023/03/29 08:47:49;;;;;;;3.33;2.23;;;;;;;5.29;39.27;95755.38;5035638;28;20326;-72
2023/03/29 08:50:14;;;;;;;5.30;2.00;;;;;;;5.24;37.41;95755.00;5036453;28;20241;-72
2023/03/29 08:52:43;;;;;;;5.10;2.00;;;;;;;5.20;35.91;95749.31;4999959;28;20720;-72
2023/03/29 08:55:30;;;;;;;3.73;2.00;;;;;;;5.20;36.10;95736.34;5017763;28;20237;-72
2023/03/29 08:57:56;;;;;;;3.10;2.10;;;;;;;5.09;35.98;95727.91;5018466;28;20775;-70
2023/03/29 09:00:46;;;;;;;2.47;1.90;;;;;;;5.24;36.48;95748.03;5031817;28;20270;-70
2023/03/29 09:03:22;;;;;;;4.30;2.00;;;;;;;5.28;36.52;95738.16;5030354;28;20722;-72
2023/03/29 09:05:53;;;;;;;3.80;2.10;;;;;;;5.44;36.85;95735.75;5018526;28;20259;-71
2023/03/29 09:08:18;;;;;;;5.13;2.10;;;;;;;5.41;36.50;95721.28;5008667;28;20230;-72
2023/03/29 09:11:08;;;;;;;2.97;2.00;;;;;;;5.35;35.96;95719.28;4999827;28;20933;-70
2023/03/29 09:13:36;;;;;;;4.40;2.17;;;;;;;5.79;36.15;95721.94;5028589;28;20238;-69
2023/03/29 09:16:08;;;;;;;6.97;2.00;;;;;;;5.92;35.96;95722.41;5024992;28;20230;-72
2023/03/29 09:18:36;;;;;;;6.83;2.27;;;;;;;5.60;35.59;95720.31;5032183;28;20324;-72
2023/03/29 09:21:11;;;;;;;3.87;1.97;;;;;;;5.72;35.22;95734.72;5034165;28;20233;-71
2023/03/29 09:23:45;;;;;;;4.50;2.00;;;;;;;5.86;35.11;95725.59;5007890;28;20759;-71
2023/03/29 09:26:13;;;;;;;4.53;2.30;;;;;;;5.94;34.64;95733.44;5032975;28;20238;-71
2023/03/29 09:29:03;;;;;;;2.67;1.90;;;;;;;5.88;34.17;95721.03;5033179;28;20257;-71
2023/03/29 09:31:37;;;;;;;7.37;2.10;;;;;;;6.28;34.00;95707.53;5005353;28;20739;-71
2023/03/29 09:34:12;;;;;;;4.37;2.30;;;;;;;6.57;34.95;95710.59;5015476;28;20226;-71
2023/03/29 09:37:05;;;;;;;3.47;2.10;;;;;;;6.66;33.05;95723.47;5003967;28;20229;-71
2023/03/29 09:39:31;;;;;;;3.17;2.07;;;;;;;6.73;33.64;95708.88;5009538;28;20236;-71
2023/03/29 09:42:10;;;;;;;4.00;2.23;;;;;;;6.53;33.96;95707.50;5021938;28;20229;-71
2023/03/29 09:44:44;;;;;;;5.27;2.30;;;;;;;6.63;32.94;95722.97;5031012;28;20248;-69
2023/03/29 09:47:18;;;;;;;6.17;2.40;;;;;;;6.61;32.61;95712.75;5037266;28;20241;-71
2023/03/29 09:49:48;;;;;;;7.77;2.27;;;;;;;6.47;31.88;95713.31;5023644;28;20789;-70
2023/03/29 09:52:15;;;;;;;3.20;1.80;;;;;;;6.67;32.17;95712.13;5013562;28;20390;-71
2023/03/29 09:54:40;;;;;;;4.90;1.97;;;;;;;6.71;32.12;95708.22;5013430;28;20222;-73
2023/03/29 09:57:11;;;;;;;3.17;2.10;;;;;;;6.80;32.04;95709.09;5013091;28;20230;-72
2023/03/29 09:59:37;;;;;;;3.90;2.00;;;;;;;6.49;33.14;95716.59;5013332;28;20731;-71
2023/03/29 10:02:11;;;;;;;5.63;2.00;;;;;;;6.58;32.72;95707.03;5007645;28;20241;-70
2023/03/29 10:04:37;;;;;;;6.40;1.97;;;;;;;6.73;32.23;95697.69;5015652;28;20225;-70
2023/03/29 10:07:04;;;;;;;4.10;2.00;;;;;;;6.84;31.59;95689.56;5014003;28;20310;-71
2023/03/29 10:09:31;;;;;;;4.47;2.20;;;;;;;7.03;31.39;95698.91;5014302;28;20293;-72
2023/03/29 10:11:58;;;;;;;4.93;1.90;;;;;;;6.96;31.64;95703.94;5003365;28;20234;-69
2023/03/29 10:14:35;;;;;;;6.03;1.80;;;;;;;7.08;31.85;95692.25;5015404;28;20295;-69
2023/03/29 10:17:10;;;;;;;3.87;2.10;;;;;;;7.34;32.31;95698.16;5017652;28;20241;-70
2023/03/29 10:19:35;;;;;;;4.90;1.90;;;;;;;7.25;31.90;95682.69;4995366;28;20228;-70
2023/03/29 10:22:15;;;;;;;4.93;1.97;;;;;;;7.28;31.75;95688.38;4987851;28;20226;-71
2023/03/29 10:24:45;;;;;;;3.97;2.10;;;;;;;7.20;31.55;95697.97;5032562;28;20225;-70
2023/03/29 10:27:11;;;;;;;4.90;1.90;;;;;;;7.08;31.64;95683.63;5032578;28;20240;-71
2023/03/29 10:29:38;;;;;;;3.97;2.10;;;;;;;7.20;31.63;95698.78;5024213;28;20229;-70
2023/03/29 10:32:21;;;;;;;4.23;1.80;;;;;;;7.15;31.18;95708.03;5017983;28;20273;-72
2023/03/29 10:34:47;;;;;;;4.03;2.00;;;;;;;7.19;31.44;95698.94;5017427;28;20225;-72
2023/03/29 10:37:15;;;;;;;3.27;1.90;;;;;;;7.21;31.38;95671.75;5011032;28;20296;-70
2023/03/29 10:39:40;;;;;;;3.13;1.73;;;;;;;7.32;31.60;95684.50;5008953;28;20228;-71
2023/03/29 10:42:07;;;;;;;3.40;1.90;;;;;;;7.38;31.42;95673.41;5012113;28;20238;-70
2023/03/29 10:44:35;;;;;;;4.53;2.20;;;;;;;7.53;32.24;95686.63;5015980;28;20249;-71
2023/03/29 10:47:13;;;;;;;3.57;1.80;;;;;;;7.85;31.22;95665.78;5030105;28;20238;-70
2023/03/29 10:49:42;;;;;;;6.03;2.10;;;;;;;7.81;31.59;95677.50;5030130;28;20320;-72
2023/03/29 10:52:08;;;;;;;3.00;1.90;;;;;;;7.97;30.00;95668.88;4995801;28;20248;-70
2023/03/29 10:54:33;;;;;;;3.60;2.03;;;;;;;8.34;29.63;95663.09;4982153;28;20230;-69
2023/03/29 10:57:00;;;;;;;4.30;1.70;;;;;;;8.09;29.34;95662.34;4996406;28;20323;-70
2023/03/29 10:59:30;;;;;;;4.10;1.70;;;;;;;7.95;29.69;95657.78;4995417;28;20233;-69
2023/03/29 11:02:14;;;;;;;5.20;2.03;;;;;;;8.36;30.22;95675.00;4987139;28;20239;-70
2023/03/29 11:05:09;;;;;;;4.30;2.40;;;;;;;8.58;29.54;95650.81;5043378;28;20234;-71
2023/03/29 11:08:10;;;;;;;3.90;2.00;;;;;;;8.68;29.32;95654.03;5023379;28;21080;-71
2023/03/29 11:10:56;;;;;;;4.60;2.20;;;;;;;8.31;29.83;95651.22;5003680;28;20236;-70
2023/03/29 11:14:04;;;;;;;3.30;1.80;;;;;;;8.31;29.45;95659.03;5013667;28;20242;-72
2023/03/29 11:16:45;;;;;;;9.40;2.10;;;;;;;8.17;29.08;95640.66;5023751;28;20238;-71
2023/03/29 11:19:30;;;;;;;3.97;2.23;;;;;;;8.53;29.16;95655.72;5031542;28;20225;-72
2023/03/29 11:22:18;;;;;;;11.63;2.50;;;;;;;8.54;28.57;95640.88;5037174;28;20747;-71
2023/03/29 11:24:57;;;;;;;4.83;2.03;;;;;;;8.40;28.52;95639.78;5030161;28;20280;-71
2023/03/29 11:27:26;;;;;;;3.47;2.10;;;;;;;8.51;29.19;95636.81;5011406;28;20277;-70
2023/03/29 11:30:07;;;;;;;13.13;2.60;;;;;;;8.59;28.64;95641.19;5014746;28;20314;-70
2023/03/29 11:32:55;;;;;;;5.13;1.83;;;;;;;8.60;29.09;95648.00;5015340;28;20254;-70
2023/03/29 11:35:42;;;;;;;3.90;1.97;;;;;;;8.69;28.80;95639.19;5020287;28;20244;-72
2023/03/29 11:38:36;;;;;;;13.13;2.80;;;;;;;8.78;29.45;95648.59;5034365;28;20230;-70
2023/03/29 11:41:14;;;;;;;5.97;2.17;;;;;;;8.64;29.27;95637.09;5035307;28;20424;-73
2023/03/29 11:44:09;;;;;;;12.30;2.87;;;;;;;8.92;29.24;95629.59;5027639;28;20242;-71
2023/03/29 11:46:39;;;;;;;8.90;2.23;;;;;;;8.75;28.45;95633.28;5017802;28;20305;-72
2023/03/29 11:49:18;;;;;;;4.90;2.03;;;;;;;8.80;28.51;95650.06;5040723;28;20230;-71
2023/03/29 11:52:03;;;;;;;5.53;2.17;;;;;;;8.97;28.57;95658.63;5033806;28;20237;-71
2023/03/29 11:54:41;;;;;;;5.17;2.30;;;;;;;8.86;27.81;95630.28;5033096;28;21043;-72
2023/03/29 11:57:28;;;;;;;2.60;1.90;;;;;;;9.01;27.57;95633.78;5026837;28;20233;-71
2023/03/29 12:00:11;;;;;;;3.07;1.87;;;;;;;8.94;28.97;95622.41;5049479;28;20233;-70